createdAt,value
2022-10-27T00:01:24.810Z,52251.37
2022-10-27T00:03:56.527Z,52256.20
2022-10-27T00:06:28.170Z,52242.13
2022-10-27T00:08:59.936Z,52255.79
2022-10-27T00:11:31.524Z,52263.03
2022-10-27T00:14:01.470Z,52249.77
2022-10-27T00:16:32.893Z,52250.98
2022-10-27T00:19:04.419Z,52261.82
2022-10-27T00:21:35.948Z,52256.60
2022-10-27T00:24:08.019Z,52265.04
2022-10-27T00:26:39.421Z,52259.41
2022-10-27T00:29:10.941Z,52269.86
2022-10-27T00:31:42.433Z,52250.17
2022-10-27T00:34:13.918Z,52260.62
2022-10-27T00:39:15.214Z,52256.60
2022-10-27T00:41:46.881Z,52271.46
2022-10-27T00:44:35.847Z,52261.82
2022-10-27T00:47:08.895Z,52267.05
2022-10-27T00:49:41.920Z,52273.07
2022-10-27T00:52:16.829Z,52281.11
2022-10-27T00:54:48.562Z,52272.27
2022-10-27T00:57:20.094Z,52259.81
2022-10-27T00:59:51.610Z,52274.28
2022-10-27T01:02:23.150Z,52263.83
2022-10-27T01:04:56.626Z,52280.71
2022-10-27T01:07:28.069Z,52267.04
2022-10-27T01:09:59.812Z,52265.04
2022-10-27T01:12:31.300Z,52262.63
2022-10-27T01:15:02.827Z,52259.01
2022-10-27T01:17:41.382Z,52260.21
2022-10-27T01:21:04.783Z,52252.98
2022-10-27T01:23:40.972Z,52270.26
2022-10-27T01:26:50.940Z,52264.23
2022-10-27T01:29:42.089Z,52261.42
2022-10-27T01:32:23.847Z,52269.05
2022-10-27T01:34:57.965Z,52268.65
2022-10-27T01:37:31.977Z,52269.05
2022-10-27T01:40:05.614Z,52265.04
2022-10-27T01:42:42.175Z,52254.19
2022-10-27T01:45:13.997Z,52260.21
2022-10-27T01:47:45.468Z,52263.43
2022-10-27T01:50:19.084Z,52256.20
2022-10-27T01:52:51.260Z,52271.07
2022-10-27T01:55:26.116Z,52267.05
2022-10-27T01:58:12.847Z,52269.86
2022-10-27T02:00:48.794Z,52246.96
2022-10-27T02:03:21.269Z,52276.29
2022-10-27T02:05:54.743Z,52266.64
2022-10-27T02:08:29.736Z,52271.06
2022-10-27T02:11:02.622Z,52269.46
2022-10-27T02:13:34.558Z,52260.21
2022-10-27T02:16:07.479Z,52247.76
2022-10-27T02:18:40.398Z,52262.63
2022-10-27T02:21:12.520Z,52271.47
2022-10-27T02:23:43.972Z,52262.63
2022-10-27T02:26:19.189Z,52256.60
2022-10-27T02:28:52.789Z,52261.82
2022-10-27T02:31:25.200Z,52259.41
2022-10-27T02:33:56.796Z,52257.40
2022-10-27T02:36:26.688Z,52269.05
2022-10-27T02:38:58.177Z,52265.84
2022-10-27T02:41:29.809Z,52266.64
2022-10-27T02:44:01.344Z,52259.82
2022-10-27T02:46:32.772Z,52265.04
2022-10-27T02:49:04.656Z,52263.84
2022-10-27T02:51:36.132Z,52253.38
2022-10-27T02:54:07.853Z,52257.80
2022-10-27T02:56:39.738Z,52257.40
2022-10-27T02:59:11.376Z,52257.40
2022-10-27T03:01:42.802Z,52271.06
2022-10-27T03:04:14.341Z,52261.82
2022-10-27T03:06:45.761Z,52260.62
2022-10-27T03:09:17.310Z,52260.21
2022-10-27T03:11:48.802Z,52262.23
2022-10-27T03:14:20.312Z,52266.64
2022-10-27T03:16:51.709Z,52261.82
2022-10-27T03:19:23.218Z,52255.79
2022-10-27T03:21:54.801Z,52256.60
2022-10-27T03:24:26.825Z,52286.34
2022-10-27T03:26:58.251Z,52271.46
2022-10-27T03:29:29.759Z,52263.02
2022-10-27T03:32:01.180Z,52265.44
2022-10-27T03:34:32.668Z,52272.68
2022-10-27T03:37:04.152Z,52275.88
2022-10-27T03:39:35.594Z,52281.11
2022-10-27T03:42:05.759Z,52277.10
2022-10-27T03:44:37.218Z,52282.32
2022-10-27T03:47:08.534Z,52285.93
2022-10-27T03:49:39.949Z,52287.54
2022-10-27T03:52:11.618Z,52275.89
2022-10-27T03:54:42.955Z,52263.43
2022-10-27T03:57:15.593Z,52288.75
2022-10-27T03:59:47.026Z,52281.51
2022-10-27T04:02:18.764Z,52292.36
2022-10-27T04:04:48.466Z,52294.38
2022-10-27T04:07:19.871Z,52275.08
2022-10-27T04:09:51.399Z,52268.66
2022-10-27T04:12:21.269Z,52289.55
2022-10-27T04:14:52.859Z,52299.60
2022-10-27T04:17:23.064Z,52297.19
2022-10-27T04:19:54.719Z,52304.02
2022-10-27T04:22:26.629Z,52281.51
2022-10-27T04:24:57.954Z,52284.73
2022-10-27T04:27:29.482Z,52292.77
2022-10-27T04:30:01.404Z,52283.93
2022-10-27T04:32:33.075Z,52277.09
2022-10-27T04:35:05.572Z,52282.32
2022-10-27T04:37:37.442Z,52271.07
2022-10-27T04:40:11.387Z,52297.99
2022-10-27T04:42:47.424Z,52275.49
2022-10-27T04:45:19.179Z,52279.10
2022-10-27T04:47:51.271Z,52275.48
2022-10-27T04:50:23.979Z,52286.34
2022-10-27T04:52:59.588Z,52291.56
2022-10-27T04:55:31.494Z,52296.79
2022-10-27T04:58:05.506Z,52281.91
2022-10-27T05:00:40.003Z,52288.75
2022-10-27T05:03:11.606Z,52291.16
2022-10-27T05:05:43.128Z,52281.91
2022-10-27T05:08:15.057Z,52276.29
2022-10-27T05:10:46.936Z,52287.14
2022-10-27T05:13:18.953Z,52295.58
2022-10-27T05:15:50.445Z,52272.67
2022-10-27T05:18:20.515Z,52294.77
2022-10-27T05:20:53.102Z,52296.38
2022-10-27T05:23:24.990Z,52287.14
2022-10-27T05:25:57.217Z,52291.96
2022-10-27T05:28:29.256Z,52279.10
2022-10-27T05:31:00.180Z,52282.32
2022-10-27T05:33:33.836Z,52284.73
2022-10-27T05:36:05.608Z,52291.96
2022-10-27T05:38:38.518Z,52265.44
2022-10-27T05:41:10.216Z,52272.67
2022-10-27T05:43:42.690Z,52275.08
2022-10-27T05:46:14.343Z,52248.56
2022-10-27T05:48:45.989Z,52273.88
2022-10-27T05:51:20.855Z,52264.23
2022-10-27T05:53:56.559Z,52263.03
2022-10-27T05:56:28.022Z,52273.48
2022-10-27T05:58:59.933Z,52265.84
2022-10-27T06:01:32.238Z,52249.77
2022-10-27T06:04:04.559Z,52267.04
2022-10-27T06:06:36.293Z,52282.31
2022-10-27T06:09:08.414Z,52269.86
2022-10-27T06:11:40.194Z,52263.03
2022-10-27T06:14:12.547Z,52233.29
2022-10-27T06:16:44.299Z,52258.21
2022-10-27T06:19:14.364Z,52247.36
2022-10-27T06:21:45.671Z,52263.83
2022-10-27T06:24:17.313Z,52255.39
2022-10-27T06:26:47.137Z,52252.98
2022-10-27T06:29:18.601Z,52267.45
2022-10-27T06:31:49.963Z,52281.91
2022-10-27T06:34:22.458Z,52257.40
2022-10-27T06:36:54.208Z,52254.99
2022-10-27T06:39:23.956Z,52259.01
2022-10-27T06:41:55.486Z,52237.71
2022-10-27T06:44:26.407Z,52246.15
2022-10-27T06:46:58.806Z,52261.42
2022-10-27T06:49:30.478Z,52255.39
2022-10-27T06:52:02.161Z,52244.14
2022-10-27T06:54:33.763Z,52243.34
2022-10-27T06:57:05.700Z,52247.35
2022-10-27T06:59:37.665Z,52240.52
2022-10-27T07:02:10.876Z,52238.91
2022-10-27T07:04:42.940Z,52233.69
2022-10-27T07:07:15.041Z,52237.31
2022-10-27T07:09:46.699Z,52239.32
2022-10-27T07:12:16.955Z,52234.90
2022-10-27T07:14:49.114Z,52243.74
2022-10-27T07:19:57.870Z,52242.93
2022-10-27T07:22:29.883Z,52234.90
2022-10-27T07:25:01.497Z,52237.31
2022-10-27T07:27:34.645Z,52231.68
2022-10-27T07:30:07.071Z,52231.28
2022-10-27T07:32:39.134Z,52222.44
2022-10-27T07:35:11.768Z,52234.90
2022-10-27T07:37:46.656Z,52229.67
2022-10-27T07:40:19.177Z,52228.87
2022-10-27T07:42:52.634Z,52204.76
2022-10-27T07:45:26.173Z,52220.83
2022-10-27T07:47:58.336Z,52208.78
2022-10-27T07:50:33.388Z,52210.38
2022-10-27T07:53:05.195Z,52224.45
2022-10-27T07:55:37.303Z,52226.86
2022-10-27T07:58:11.104Z,52218.02
2022-10-27T08:00:43.917Z,52227.26
2022-10-27T08:03:17.599Z,52196.72
2022-10-27T08:05:49.256Z,52222.04
2022-10-27T08:08:21.203Z,52223.64
2022-10-27T08:10:51.799Z,52213.20
2022-10-27T08:13:23.600Z,52222.04
2022-10-27T08:15:53.510Z,52229.67
2022-10-27T08:18:25.109Z,52222.84
2022-10-27T08:20:56.398Z,52211.99
2022-10-27T08:23:26.911Z,52223.24
2022-10-27T08:25:58.372Z,52218.02
2022-10-27T08:28:30.098Z,52213.60
2022-10-27T08:31:00.235Z,52213.60
2022-10-27T08:33:31.655Z,52218.02
2022-10-27T08:36:03.820Z,52214.00
2022-10-27T08:38:36.048Z,52218.82
2022-10-27T08:41:24.189Z,52212.80
2022-10-27T08:44:21.337Z,52205.96
2022-10-27T08:46:53.674Z,52209.58
2022-10-27T08:49:35.471Z,52207.57
2022-10-27T08:52:07.769Z,52197.93
2022-10-27T08:54:39.124Z,52212.39
2022-10-27T08:57:12.037Z,52181.05
2022-10-27T08:59:45.029Z,52194.71
2022-10-27T09:02:30.481Z,52200.34
2022-10-27T09:05:17.647Z,52199.13
2022-10-27T09:07:53.683Z,52199.13
2022-10-27T09:10:39.784Z,52193.51
2022-10-27T09:13:17.600Z,52175.82
2022-10-27T09:15:50.010Z,52199.94
2022-10-27T09:18:24.007Z,52185.07
2022-10-27T09:20:56.509Z,52191.90
2022-10-27T09:23:30.156Z,52186.68
2022-10-27T09:26:01.869Z,52171.00
2022-10-27T09:28:33.200Z,52176.63
2022-10-27T09:31:05.232Z,52173.41
2022-10-27T09:33:37.416Z,52184.66
2022-10-27T09:36:15.224Z,52193.10
2022-10-27T09:38:49.483Z,52195.52
2022-10-27T09:41:21.080Z,52201.14
2022-10-27T09:43:56.305Z,52177.03
2022-10-27T09:46:31.263Z,52192.30
2022-10-27T09:49:08.306Z,52194.31
2022-10-27T09:51:43.913Z,52190.69
2022-10-27T09:54:31.509Z,52177.03
2022-10-27T09:57:11.473Z,52209.98
2022-10-27T09:59:42.839Z,52197.13
2022-10-27T10:02:26.477Z,52187.88
2022-10-27T10:04:57.944Z,52184.26
2022-10-27T10:07:38.045Z,52181.85
2022-10-27T10:10:24.449Z,52198.73
2022-10-27T10:13:12.922Z,52178.64
2022-10-27T10:15:45.483Z,52189.48
2022-10-27T10:18:27.312Z,52210.79
2022-10-27T10:21:02.613Z,52205.96
2022-10-27T10:23:34.885Z,52205.56
2022-10-27T10:26:07.421Z,52187.48
2022-10-27T10:28:39.650Z,52193.50
2022-10-27T10:31:11.627Z,52209.58
2022-10-27T10:33:45.107Z,52197.93
2022-10-27T10:36:27.206Z,52196.72
2022-10-27T10:39:00.269Z,52195.11
2022-10-27T10:41:31.900Z,52193.11
2022-10-27T10:44:16.029Z,52208.77
2022-10-27T10:46:54.236Z,52196.32
2022-10-27T10:49:26.237Z,52191.90
2022-10-27T10:51:58.689Z,52187.88
2022-10-27T10:54:32.810Z,52191.50
2022-10-27T10:57:04.397Z,52187.88
2022-10-27T10:59:36.624Z,52184.27
2022-10-27T11:02:14.019Z,52185.87
2022-10-27T11:04:48.137Z,52187.07
2022-10-27T11:07:25.011Z,52186.68
2022-10-27T11:09:59.749Z,52186.27
2022-10-27T11:12:34.477Z,52185.07
2022-10-27T11:15:08.981Z,52189.49
2022-10-27T11:17:40.643Z,52180.65
2022-10-27T11:20:10.946Z,52181.45
2022-10-27T11:22:44.080Z,52160.96
2022-10-27T11:25:18.139Z,52185.47
2022-10-27T11:27:57.585Z,52179.45
2022-10-27T11:30:29.603Z,52189.89
2022-10-27T11:33:12.816Z,52174.62
2022-10-27T11:35:50.396Z,52171.41
2022-10-27T11:40:59.344Z,52190.29
2022-10-27T11:43:32.972Z,52194.71
2022-10-27T11:46:07.755Z,52182.25
2022-10-27T11:48:41.318Z,52160.55
2022-10-27T11:51:15.756Z,52167.38
2022-10-27T11:53:47.482Z,52166.58
2022-10-27T11:56:33.039Z,52195.91
2022-10-27T11:59:11.902Z,52177.43
2022-10-27T12:01:52.745Z,52185.87
2022-10-27T12:04:44.679Z,52198.73
2022-10-27T12:07:19.913Z,52197.52
2022-10-27T12:10:00.098Z,52189.89
2022-10-27T12:12:34.992Z,52189.49
2022-10-27T12:15:10.037Z,52180.64
2022-10-27T12:17:43.771Z,52182.25
2022-10-27T12:20:17.333Z,52186.27
2022-10-27T12:22:54.145Z,52192.30
2022-10-27T12:25:29.423Z,52188.28
2022-10-27T12:28:01.504Z,52191.09
2022-10-27T12:30:33.106Z,52179.44
2022-10-27T12:33:05.237Z,52190.70
2022-10-27T12:35:40.868Z,52183.86
2022-10-27T12:38:15.107Z,52189.89
2022-10-27T12:40:50.276Z,52193.11
2022-10-27T12:43:25.339Z,52199.13
2022-10-27T12:46:04.913Z,52183.86
2022-10-27T12:48:40.466Z,52195.52
2022-10-27T12:51:18.758Z,52177.84
2022-10-27T12:53:51.333Z,52174.62
2022-10-27T12:56:32.412Z,52191.50
2022-10-27T12:59:09.981Z,52177.43
2022-10-27T13:01:45.846Z,52188.68
2022-10-27T13:04:48.799Z,52188.68
2022-10-27T13:07:59.785Z,52186.27
2022-10-27T13:13:54.028Z,52080.64
2022-10-27T13:16:30.104Z,52195.52
2022-10-27T13:19:13.604Z,52201.14
2022-10-27T13:21:46.529Z,52189.89
2022-10-27T13:24:22.901Z,52186.27
2022-10-27T13:26:57.047Z,52190.29
2022-10-27T13:29:38.063Z,52199.13
2022-10-27T13:32:39.267Z,52177.83
2022-10-27T13:35:37.946Z,52177.83
2022-10-27T13:38:26.686Z,52171.40
2022-10-27T13:40:59.341Z,52185.88
2022-10-27T13:43:52.760Z,52192.30
2022-10-27T13:47:12.093Z,52193.51
2022-10-27T13:50:05.699Z,52197.12
2022-10-27T13:52:38.008Z,52189.89
2022-10-27T13:55:37.310Z,52199.54
2022-10-27T13:58:36.229Z,52189.09
2022-10-27T14:01:22.400Z,52205.56
2022-10-27T14:04:15.762Z,52187.48
2022-10-27T14:06:47.746Z,52200.74
2022-10-27T14:09:34.019Z,52211.99
2022-10-27T14:12:07.704Z,52197.52
2022-10-27T14:14:40.246Z,52214.80
2022-10-27T14:17:18.301Z,52202.75
2022-10-27T14:19:55.496Z,52197.52
2022-10-27T14:22:34.196Z,52189.89
2022-10-27T14:25:15.904Z,52216.41
2022-10-27T14:27:47.729Z,52218.02
2022-10-27T14:30:18.839Z,52206.77
2022-10-27T14:32:50.483Z,52191.49
2022-10-27T14:35:27.455Z,52204.76
2022-10-27T14:37:59.612Z,52209.18
2022-10-27T14:40:38.080Z,52205.96
2022-10-27T14:43:14.977Z,52201.14
2022-10-27T14:45:46.592Z,52206.37
2022-10-27T14:48:25.995Z,52224.45
2022-10-27T14:50:57.650Z,52198.73
2022-10-27T14:53:29.302Z,52216.81
2022-10-27T14:56:16.790Z,52209.58
2022-10-27T14:58:56.902Z,52208.77
2022-10-27T15:01:35.721Z,52215.21
2022-10-27T15:04:21.131Z,52219.23
2022-10-27T15:06:53.733Z,52204.36
2022-10-27T15:09:32.810Z,52213.60
2022-10-27T15:12:05.896Z,52208.38
2022-10-27T15:14:38.465Z,52208.38
2022-10-27T15:17:13.420Z,52217.62
2022-10-27T15:19:49.004Z,52199.54
2022-10-27T15:22:21.098Z,52216.41
2022-10-27T15:24:54.055Z,52226.46
2022-10-27T15:27:25.428Z,52209.58
2022-10-27T15:29:57.821Z,52218.42
2022-10-27T15:32:32.884Z,52227.66
2022-10-27T15:35:05.205Z,52222.04
2022-10-27T15:37:36.815Z,52220.83
2022-10-27T15:40:34.468Z,52240.13
2022-10-27T15:43:20.305Z,52230.07
2022-10-27T15:45:52.512Z,52226.46
2022-10-27T15:48:38.598Z,52226.86
2022-10-27T15:51:12.399Z,52234.89
2022-10-27T15:53:49.884Z,52220.02
2022-10-27T15:56:42.696Z,52225.65
2022-10-27T15:59:16.796Z,52230.08
2022-10-27T16:01:48.723Z,52217.21
2022-10-27T16:04:40.142Z,52230.07
2022-10-27T16:07:32.669Z,52213.20
2022-10-27T16:10:06.463Z,52240.52
2022-10-27T16:12:43.898Z,52240.12
2022-10-27T16:15:22.049Z,52234.90
2022-10-27T16:17:55.303Z,52244.54
2022-10-27T16:20:28.315Z,52235.30
2022-10-27T16:22:59.754Z,52233.69
2022-10-27T16:25:32.099Z,52234.09
2022-10-27T16:28:05.120Z,52241.73
2022-10-27T16:30:36.613Z,52237.31
2022-10-27T16:33:08.191Z,52230.48
2022-10-27T16:35:40.277Z,52240.52
2022-10-27T16:38:12.091Z,52243.74
2022-10-27T16:40:47.400Z,52244.14
2022-10-27T16:43:23.627Z,52243.34
2022-10-27T16:45:55.478Z,52244.54
2022-10-27T16:48:27.680Z,52246.15
2022-10-27T16:50:59.608Z,52250.97
2022-10-27T16:53:31.657Z,52226.86
2022-10-27T16:56:04.450Z,52251.38
2022-10-27T16:58:40.590Z,52223.24
2022-10-27T17:01:13.256Z,52232.49
2022-10-27T17:03:46.127Z,52227.26
2022-10-27T17:06:22.154Z,52238.51
2022-10-27T17:08:55.203Z,52235.30
2022-10-27T17:11:28.325Z,52237.30
2022-10-27T17:14:02.347Z,52234.90
2022-10-27T17:16:35.967Z,52231.28
2022-10-27T17:19:13.972Z,52236.10
2022-10-27T17:21:48.932Z,52238.91
2022-10-27T17:24:21.787Z,52245.35
2022-10-27T17:26:55.076Z,52238.52
2022-10-27T17:29:30.823Z,52242.13
2022-10-27T17:32:03.605Z,52234.90
2022-10-27T17:34:38.049Z,52248.96
2022-10-27T17:37:15.803Z,52231.68
2022-10-27T17:39:48.631Z,52232.48
2022-10-27T17:42:21.122Z,52245.34
2022-10-27T17:45:00.172Z,52246.55
2022-10-27T17:47:35.160Z,52255.79
2022-10-27T17:50:12.022Z,52247.36
2022-10-27T17:52:46.910Z,52243.34
2022-10-27T17:55:19.827Z,52251.77
2022-10-27T17:57:55.673Z,52253.78
2022-10-27T18:00:32.918Z,52242.94
2022-10-27T18:03:06.092Z,52232.89
2022-10-27T18:05:41.062Z,52254.99
2022-10-27T18:08:15.178Z,52243.74
2022-10-27T18:10:47.108Z,52237.71
2022-10-27T18:13:18.597Z,52244.94
2022-10-27T18:15:48.851Z,52245.75
2022-10-27T18:18:20.530Z,52250.17
2022-10-27T18:20:50.542Z,52233.29
2022-10-27T18:23:22.922Z,52243.74
2022-10-27T18:25:54.449Z,52245.75
2022-10-27T18:28:26.061Z,52245.35
2022-10-27T18:31:03.072Z,52259.81
2022-10-27T18:33:35.747Z,52246.95
2022-10-27T18:36:10.316Z,52249.37
2022-10-27T18:38:43.493Z,52238.11
2022-10-27T18:41:20.469Z,52241.33
2022-10-27T18:43:57.975Z,52259.41
2022-10-27T18:46:33.049Z,52238.11
2022-10-27T18:49:06.257Z,52249.37
2022-10-27T18:51:43.266Z,52238.51
2022-10-27T18:54:16.090Z,52253.38
2022-10-27T18:56:50.224Z,52242.53
2022-10-27T18:59:23.104Z,52248.56
2022-10-27T19:02:03.762Z,52253.78
2022-10-27T19:04:37.108Z,52253.79
2022-10-27T19:07:10.876Z,52260.62
2022-10-27T19:09:43.638Z,52246.15
2022-10-27T19:12:16.336Z,52242.53
2022-10-27T19:14:53.778Z,52258.21
2022-10-27T19:17:26.026Z,52259.81
2022-10-27T19:20:01.561Z,52247.36
2022-10-27T19:22:36.379Z,52256.59
2022-10-27T19:25:16.153Z,52257.40
2022-10-27T19:27:48.957Z,52256.20
2022-10-27T19:30:23.894Z,52279.11
2022-10-27T19:32:55.751Z,52265.84
2022-10-27T19:35:27.578Z,52260.21
2022-10-27T19:37:59.186Z,52242.13
2022-10-27T19:40:30.309Z,52253.79
2022-10-27T19:43:01.796Z,52234.09
2022-10-27T19:45:35.729Z,52249.37
2022-10-27T19:48:08.323Z,52246.55
2022-10-27T19:50:40.317Z,52248.96
2022-10-27T19:53:10.307Z,52243.34
2022-10-27T19:55:42.039Z,52250.57
2022-10-27T19:58:12.041Z,52254.99
2022-10-27T20:00:43.459Z,52248.56
2022-10-27T20:03:15.214Z,52246.95
2022-10-27T20:05:54.818Z,52253.38
2022-10-27T20:08:26.435Z,52260.62
2022-10-27T20:10:58.710Z,52266.24
2022-10-27T20:13:28.433Z,52256.20
2022-10-27T20:16:04.363Z,52274.28
2022-10-27T20:18:36.031Z,52268.66
2022-10-27T20:21:08.389Z,52260.62
2022-10-27T20:23:40.680Z,52269.05
2022-10-27T20:26:30.183Z,52240.52
2022-10-27T20:29:02.540Z,52255.79
2022-10-27T20:31:34.698Z,52246.15
2022-10-27T20:34:06.605Z,52259.81
2022-10-27T20:36:38.603Z,52258.61
2022-10-27T20:39:10.835Z,52245.75
2022-10-27T20:41:42.716Z,52259.81
2022-10-27T20:44:12.752Z,52261.02
2022-10-27T20:46:45.040Z,52250.17
2022-10-27T20:49:17.063Z,52238.52
2022-10-27T20:51:48.925Z,52252.18
2022-10-27T20:54:19.256Z,52264.63
2022-10-27T20:56:50.657Z,52267.85
2022-10-27T20:59:25.519Z,52262.62
2022-10-27T21:01:58.472Z,52257.80
2022-10-27T21:04:30.294Z,52251.77
2022-10-27T21:07:01.883Z,52263.03
2022-10-27T21:09:33.478Z,52249.77
2022-10-27T21:12:05.211Z,52264.64
2022-10-27T21:14:36.649Z,52266.64
2022-10-27T21:17:08.084Z,52255.39
2022-10-27T21:19:39.634Z,52265.84
2022-10-27T21:22:11.603Z,52261.02
2022-10-27T21:24:41.517Z,52263.43
2022-10-27T21:27:13.152Z,52253.79
2022-10-27T21:29:44.839Z,52268.25
2022-10-27T21:32:14.715Z,52259.41
2022-10-27T21:34:46.238Z,52257.00
2022-10-27T21:37:16.172Z,52252.58
2022-10-27T21:39:47.763Z,52265.04
2022-10-27T21:42:18.031Z,52257.80
2022-10-27T21:44:49.573Z,52253.38
2022-10-27T21:47:19.916Z,52267.04
2022-10-27T21:49:51.419Z,52268.25
2022-10-27T21:52:22.893Z,52263.83
2022-10-27T21:54:54.403Z,52254.19
2022-10-27T21:57:26.053Z,52268.25
2022-10-27T21:59:57.595Z,52275.88
2022-10-27T22:02:29.106Z,52268.65
2022-10-27T22:05:00.635Z,52263.43
2022-10-27T22:07:32.051Z,52275.09
2022-10-27T22:10:03.658Z,52262.63
2022-10-27T22:12:35.283Z,52260.62
2022-10-27T22:15:07.833Z,52246.55
2022-10-27T22:17:39.389Z,52271.47
2022-10-27T22:20:12.253Z,52255.39
2022-10-27T22:22:43.859Z,52274.68
2022-10-27T22:25:15.475Z,52257.40
2022-10-27T22:27:47.021Z,52281.11
2022-10-27T22:30:18.664Z,52263.83
2022-10-27T22:32:48.522Z,52277.90
2022-10-27T22:35:20.274Z,52280.31
2022-10-27T22:37:50.335Z,52249.77
2022-10-27T22:40:22.412Z,52265.84
2022-10-27T22:42:53.940Z,52261.02
2022-10-27T22:45:25.482Z,52242.93
2022-10-27T22:47:57.245Z,52265.44
2022-10-27T22:50:27.048Z,52269.05
2022-10-27T22:52:58.485Z,52264.24
2022-10-27T22:55:29.945Z,52267.85
2022-10-27T22:58:01.907Z,52260.62
2022-10-27T23:00:31.738Z,52266.24
2022-10-27T23:03:03.697Z,52261.42
2022-10-27T23:05:35.106Z,52254.18
2022-10-27T23:08:06.920Z,52270.66
2022-10-27T23:10:36.891Z,52276.70
2022-10-27T23:13:08.460Z,52264.23
2022-10-27T23:15:39.920Z,52271.87
2022-10-27T23:18:11.442Z,52254.99
2022-10-27T23:20:42.817Z,52279.51
2022-10-27T23:23:14.374Z,52288.75
2022-10-27T23:25:46.117Z,52272.68
2022-10-27T23:28:17.450Z,52275.89
2022-10-27T23:30:49.037Z,52253.38
2022-10-27T23:33:20.649Z,52263.03
2022-10-27T23:35:59.331Z,52264.23
2022-10-27T23:38:30.815Z,52279.91
2022-10-27T23:41:02.176Z,52270.66
2022-10-27T23:43:34.073Z,52283.12
2022-10-27T23:46:04.159Z,52274.28
2022-10-27T23:48:36.212Z,52253.38
2022-10-27T23:51:08.143Z,52269.86
2022-10-27T23:53:39.770Z,52275.09
2022-10-27T23:56:13.098Z,52288.74
2022-10-27T23:58:45.145Z,52267.45
